createdAt,value
2022-09-26T00:01:10.209Z,97834.41
2022-09-26T00:03:37.312Z,97841.19
2022-09-26T00:06:06.192Z,97842.78
2022-09-26T00:08:33.569Z,97847.13
2022-09-26T00:11:01.762Z,97840.03
2022-09-26T00:13:29.649Z,97831.63
2022-09-26T00:15:57.389Z,97835.16
2022-09-26T00:18:24.922Z,97833.22
2022-09-26T00:20:51.841Z,97826.59
2022-09-26T00:23:19.053Z,97824.25
2022-09-26T00:25:50.181Z,97818.28
2022-09-26T00:28:18.111Z,97823.88
2022-09-26T00:30:45.245Z,97831.47
2022-09-26T00:33:12.321Z,97827.16
2022-09-26T00:35:39.184Z,97827.16
2022-09-26T00:38:06.529Z,97829.34
2022-09-26T00:40:33.371Z,97828.31
2022-09-26T00:43:00.053Z,97826.34
2022-09-26T00:45:30.522Z,97830.81
2022-09-26T00:48:06.845Z,97824.81
2022-09-26T00:50:39.220Z,97827.50
2022-09-26T00:53:10.461Z,97824.09
2022-09-26T00:55:40.000Z,97819.66
2022-09-26T00:58:14.667Z,97817.38
2022-09-26T01:00:42.662Z,97810.09
2022-09-26T01:03:09.663Z,97815.59
2022-09-26T01:05:37.101Z,97812.63
2022-09-26T01:08:04.416Z,97812.78
2022-09-26T01:10:32.185Z,97809.22
2022-09-26T01:13:01.558Z,97804.25
2022-09-26T01:15:29.169Z,97803.78
2022-09-26T01:17:56.030Z,97809.88
2022-09-26T01:20:27.207Z,97803.78
2022-09-26T01:23:30.946Z,97805.94
2022-09-26T01:26:24.622Z,97810.75
2022-09-26T01:29:21.161Z,97807.63
2022-09-26T01:32:23.095Z,97806.84
2022-09-26T01:34:59.532Z,97810.03
2022-09-26T01:37:40.010Z,97806.88
2022-09-26T01:40:10.997Z,97801.19
2022-09-26T01:43:00.111Z,97810.13
2022-09-26T01:45:33.596Z,97809.56
2022-09-26T01:48:06.069Z,97815.13
2022-09-26T01:50:44.232Z,97808.13
2022-09-26T01:53:25.200Z,97807.72
2022-09-26T01:56:00.104Z,97814.47
2022-09-26T01:58:39.297Z,97814.97
2022-09-26T02:01:10.672Z,97811.44
2022-09-26T02:03:42.457Z,97804.47
2022-09-26T02:06:13.171Z,97810.91
2022-09-26T02:08:44.030Z,97812.78
2022-09-26T02:11:15.280Z,97809.72
2022-09-26T02:13:55.701Z,97803.09
2022-09-26T02:16:32.161Z,97797.03
2022-09-26T02:19:08.968Z,97803.31
2022-09-26T02:21:35.719Z,97800.66
2022-09-26T02:24:02.524Z,97792.78
2022-09-26T02:26:29.519Z,97793.44
2022-09-26T02:28:59.236Z,97789.47
2022-09-26T02:31:30.278Z,97788.19
2022-09-26T02:33:57.677Z,97789.88
2022-09-26T02:36:26.708Z,97785.97
2022-09-26T02:38:53.398Z,97782.84
2022-09-26T02:41:51.006Z,97783.06
2022-09-26T02:44:42.021Z,97777.66
2022-09-26T02:47:28.293Z,97795.38
2022-09-26T02:50:01.619Z,97778.78
2022-09-26T02:52:49.756Z,97774.50
2022-09-26T02:55:27.655Z,97776.75
2022-09-26T02:58:12.602Z,97773.56
2022-09-26T03:00:48.641Z,97767.72
2022-09-26T03:03:33.817Z,97764.75
2022-09-26T03:06:03.563Z,97759.63
2022-09-26T03:08:35.054Z,97759.63
2022-09-26T03:11:05.252Z,97755.84
2022-09-26T03:13:38.101Z,97749.56
2022-09-26T03:16:06.488Z,97741.50
2022-09-26T03:18:42.152Z,97736.84
2022-09-26T03:21:09.462Z,97738.56
2022-09-26T03:23:37.788Z,97734.44
2022-09-26T03:26:12.811Z,97729.50
2022-09-26T03:28:50.336Z,97737.50
2022-09-26T03:31:18.192Z,97728.22
2022-09-26T03:33:52.280Z,97736.31
2022-09-26T03:36:19.439Z,97720.34
2022-09-26T03:38:46.223Z,97722.97
2022-09-26T03:41:33.089Z,97723.97
2022-09-26T03:44:07.638Z,97721.50
2022-09-26T03:46:54.248Z,97712.09
2022-09-26T03:49:21.323Z,97709.44
2022-09-26T03:51:48.071Z,97712.44
2022-09-26T03:54:14.992Z,97706.44
2022-09-26T03:56:41.905Z,97698.81
2022-09-26T03:59:09.229Z,97694.69
2022-09-26T04:01:36.610Z,97697.47
2022-09-26T04:04:03.247Z,97689.00
2022-09-26T04:06:29.986Z,97691.19
2022-09-26T04:08:59.096Z,97688.09
2022-09-26T04:11:25.859Z,97683.44
2022-09-26T04:13:53.968Z,97686.81
2022-09-26T04:16:24.470Z,97691.47
2022-09-26T04:19:12.428Z,97684.88
2022-09-26T04:21:40.219Z,97675.19
2022-09-26T04:24:14.629Z,97676.25
2022-09-26T04:26:43.079Z,97670.34
2022-09-26T04:29:10.341Z,97668.84
2022-09-26T04:31:51.903Z,97666.25
2022-09-26T04:34:27.243Z,97664.25
2022-09-26T04:36:54.293Z,97658.34
2022-09-26T04:39:21.101Z,97655.03
2022-09-26T04:41:48.263Z,97649.41
2022-09-26T04:44:15.301Z,97650.22
2022-09-26T04:46:42.236Z,97652.22
2022-09-26T04:49:09.788Z,97639.00
2022-09-26T04:51:37.621Z,97648.88
2022-09-26T04:54:04.694Z,97645.41
2022-09-26T04:56:37.123Z,97642.28
2022-09-26T04:59:05.637Z,97635.69
2022-09-26T05:01:54.405Z,97633.09
2022-09-26T05:04:27.740Z,97638.72
2022-09-26T05:06:57.928Z,97634.41
2022-09-26T05:09:30.760Z,97633.25
2022-09-26T05:12:07.547Z,97622.56
2022-09-26T05:14:36.342Z,97624.69
2022-09-26T05:17:04.660Z,97627.03
2022-09-26T05:19:32.952Z,97633.78
2022-09-26T05:22:18.962Z,97632.97
2022-09-26T05:25:04.615Z,97641.56
2022-09-26T05:27:31.358Z,97639.09
2022-09-26T05:29:58.287Z,97636.44
2022-09-26T05:32:29.163Z,97640.41
2022-09-26T05:34:56.251Z,97634.78
2022-09-26T05:37:24.105Z,97626.81
2022-09-26T05:40:09.548Z,97624.34
2022-09-26T05:42:40.973Z,97621.66
2022-09-26T05:45:08.904Z,97627.91
2022-09-26T05:47:36.379Z,97629.06
2022-09-26T05:50:09.979Z,97622.03
2022-09-26T05:52:38.945Z,97625.13
2022-09-26T05:55:07.997Z,97618.78
2022-09-26T05:58:04.300Z,97620.09
2022-09-26T06:00:53.614Z,97619.41
2022-09-26T06:03:21.056Z,97615.88
2022-09-26T06:06:13.792Z,97617.13
2022-09-26T06:08:42.018Z,97609.44
2022-09-26T06:11:22.691Z,97615.75
2022-09-26T06:13:49.780Z,97611.88
2022-09-26T06:16:19.580Z,97603.75
2022-09-26T06:18:50.679Z,97604.78
2022-09-26T06:21:19.375Z,97600.31
2022-09-26T06:23:49.822Z,97606.00
2022-09-26T06:26:27.226Z,97608.66
2022-09-26T06:29:00.328Z,97599.69
2022-09-26T06:31:30.054Z,97609.22
2022-09-26T06:34:13.193Z,97594.59
2022-09-26T06:36:51.598Z,97591.69
2022-09-26T06:39:18.327Z,97593.72
2022-09-26T06:41:46.490Z,97595.72
2022-09-26T06:44:35.860Z,97582.81
2022-09-26T06:47:29.232Z,97594.25
2022-09-26T06:50:22.655Z,97590.88
2022-09-26T06:52:53.243Z,97587.13
2022-09-26T06:55:19.986Z,97579.34
2022-09-26T06:57:46.671Z,97573.28
2022-09-26T07:00:15.958Z,97579.66
2022-09-26T07:03:01.887Z,97578.22
2022-09-26T07:05:56.350Z,97577.25
2022-09-26T07:08:37.738Z,97568.50
2022-09-26T07:11:32.650Z,97578.44
2022-09-26T07:14:02.329Z,97577.28
2022-09-26T07:16:29.811Z,97581.97
2022-09-26T07:19:17.099Z,97575.56
2022-09-26T07:21:55.416Z,97586.13
2022-09-26T07:24:34.289Z,97575.31
2022-09-26T07:27:01.861Z,97579.84
2022-09-26T07:29:29.269Z,97575.66
2022-09-26T07:31:56.159Z,97570.03
2022-09-26T07:34:42.965Z,97566.19
2022-09-26T07:37:12.030Z,97565.88
2022-09-26T07:39:38.769Z,97564.00
2022-09-26T07:42:05.652Z,97556.34
2022-09-26T07:47:37.960Z,97553.88
2022-09-26T07:50:11.323Z,97559.69
2022-09-26T07:52:56.376Z,97559.03
2022-09-26T07:55:27.402Z,97559.47
2022-09-26T07:58:13.718Z,97557.50
2022-09-26T08:00:58.802Z,97552.63
2022-09-26T08:04:01.756Z,97543.41
2022-09-26T08:06:36.798Z,97547.94
2022-09-26T08:09:03.476Z,97545.91
2022-09-26T08:11:48.715Z,97539.75
2022-09-26T08:14:32.249Z,97536.25
2022-09-26T08:17:14.415Z,97533.38
2022-09-26T08:19:41.230Z,97530.13
2022-09-26T08:22:08.562Z,97533.19
2022-09-26T08:24:35.816Z,97532.16
2022-09-26T08:27:23.196Z,97531.34
2022-09-26T08:29:51.166Z,97517.56
2022-09-26T08:32:19.453Z,97524.34
2022-09-26T08:34:47.205Z,97522.31
2022-09-26T08:37:36.952Z,97522.66
2022-09-26T08:40:26.964Z,97529.47
2022-09-26T08:43:56.372Z,97521.44
2022-09-26T08:46:51.689Z,97509.75
2022-09-26T08:50:00.131Z,97508.09
2022-09-26T08:52:36.231Z,97508.69
2022-09-26T08:55:27.975Z,97509.97
2022-09-26T08:58:05.887Z,97511.84
2022-09-26T09:00:33.887Z,97506.72
2022-09-26T09:03:23.373Z,97503.44
2022-09-26T09:05:53.136Z,97500.94
2022-09-26T09:08:23.557Z,97504.44
2022-09-26T09:11:26.397Z,97503.13
2022-09-26T09:14:29.886Z,97496.31
2022-09-26T09:17:21.183Z,97502.13
2022-09-26T09:20:16.237Z,97494.13
2022-09-26T09:23:24.509Z,97494.81
2022-09-26T09:27:52.370Z,97495.81
2022-09-26T09:28:53.364Z,97488.47
2022-09-26T09:31:20.629Z,97478.63
2022-09-26T09:34:26.780Z,97485.41
2022-09-26T09:37:24.127Z,97485.03
2022-09-26T09:40:28.144Z,97475.97
2022-09-26T09:43:05.321Z,97470.22
2022-09-26T09:45:46.393Z,97474.94
2022-09-26T09:48:13.409Z,97470.00
2022-09-26T09:50:42.998Z,97466.13
2022-09-26T09:53:37.152Z,97461.34
2022-09-26T09:56:36.778Z,97464.81
2022-09-26T09:59:41.551Z,97450.53
2022-09-26T10:02:19.606Z,97446.84
2022-09-26T10:04:52.902Z,97444.34
2022-09-26T10:07:19.829Z,97443.75
2022-09-26T10:10:13.810Z,97438.34
2022-09-26T10:12:59.021Z,97442.72
2022-09-26T10:16:01.510Z,97432.28
2022-09-26T10:19:04.217Z,97423.00
2022-09-26T10:21:34.516Z,97432.75
2022-09-26T10:24:04.849Z,97425.81
2022-09-26T10:26:49.575Z,97419.59
2022-09-26T10:29:35.232Z,97416.53
2022-09-26T10:32:02.629Z,97415.97
2022-09-26T10:34:32.058Z,97415.19
2022-09-26T10:37:20.455Z,97409.91
2022-09-26T10:40:16.390Z,97408.25
2022-09-26T10:42:47.190Z,97406.94
2022-09-26T10:45:18.053Z,97398.72
2022-09-26T10:48:08.172Z,97398.72
2022-09-26T10:51:02.365Z,97393.28
2022-09-26T10:53:38.675Z,97392.03
2022-09-26T10:56:12.037Z,97381.84
2022-09-26T10:58:42.629Z,97381.03
2022-09-26T11:01:21.057Z,97381.25
2022-09-26T11:03:49.449Z,97375.63
2022-09-26T11:06:40.735Z,97370.50
2022-09-26T11:09:30.968Z,97370.44
2022-09-26T11:11:57.851Z,97361.53
2022-09-26T11:14:31.294Z,97350.50
2022-09-26T11:17:03.389Z,97357.88
2022-09-26T11:19:35.396Z,97359.72
2022-09-26T11:22:08.526Z,97355.16
2022-09-26T11:24:55.158Z,97355.72
2022-09-26T11:27:43.394Z,97346.78
2022-09-26T11:30:15.163Z,97325.72
2022-09-26T11:32:55.461Z,97326.03
2022-09-26T11:36:11.074Z,97325.28
2022-09-26T11:38:51.027Z,97328.53
2022-09-26T11:41:44.101Z,97310.69
2022-09-26T11:44:47.811Z,97312.00
2022-09-26T11:47:44.908Z,97314.81
2022-09-26T11:50:26.566Z,97312.09
2022-09-26T11:54:00.517Z,97298.84
2022-09-26T11:56:42.233Z,97299.91
2022-09-26T11:59:21.399Z,97293.09
2022-09-26T12:02:19.307Z,97294.88
2022-09-26T12:05:13.847Z,97282.00
2022-09-26T12:07:56.402Z,97281.56
2022-09-26T12:10:45.351Z,97291.44
2022-09-26T12:13:54.369Z,97303.06
2022-09-26T12:16:37.373Z,97331.25
2022-09-26T12:19:22.916Z,97326.03
2022-09-26T12:22:23.303Z,97342.75
2022-09-26T12:25:19.926Z,97332.91
2022-09-26T12:28:02.438Z,97317.56
2022-09-26T12:30:37.565Z,97286.38
2022-09-26T12:33:51.173Z,97273.13
2022-09-26T12:36:40.696Z,97253.22
2022-09-26T12:39:24.679Z,97254.03
2022-09-26T12:41:57.242Z,97245.44
2022-09-26T12:44:39.087Z,97240.97
2022-09-26T12:47:55.763Z,97245.44
2022-09-26T12:50:29.334Z,97241.56
2022-09-26T12:53:10.349Z,97236.44
2022-09-26T12:55:49.016Z,97233.19
2022-09-26T12:58:55.421Z,97234.03
2022-09-26T13:02:10.125Z,97223.22
2022-09-26T13:04:46.127Z,97218.88
2022-09-26T13:07:21.380Z,97204.59
2022-09-26T13:09:55.570Z,97216.44
2022-09-26T13:12:50.856Z,97212.56
2022-09-26T13:15:32.512Z,97210.88
2022-09-26T13:18:05.300Z,97206.78
2022-09-26T13:20:43.645Z,97210.47
2022-09-26T13:23:27.498Z,97206.97
2022-09-26T13:26:15.432Z,97202.72
2022-09-26T13:29:18.019Z,97207.06
2022-09-26T13:32:02.008Z,97197.44
2022-09-26T13:34:39.582Z,97205.63
2022-09-26T13:37:19.667Z,97207.47
2022-09-26T13:40:21.301Z,97200.69
2022-09-26T13:42:58.313Z,97190.84
2022-09-26T13:45:43.126Z,97188.97
2022-09-26T13:48:33.805Z,97185.44
2022-09-26T13:51:19.336Z,97174.97
2022-09-26T13:53:51.936Z,97179.22
2022-09-26T13:56:34.547Z,97176.59
2022-09-26T13:59:14.525Z,97174.03
2022-09-26T14:02:19.009Z,97175.97
2022-09-26T14:04:50.413Z,97170.28
2022-09-26T14:08:06.083Z,97168.75
2022-09-26T14:10:37.017Z,97161.13
2022-09-26T14:13:24.961Z,97163.09
2022-09-26T14:16:05.882Z,97156.00
2022-09-26T14:18:45.343Z,97153.00
2022-09-26T14:21:29.128Z,97154.00
2022-09-26T14:24:20.725Z,97151.50
2022-09-26T14:27:05.648Z,97161.25
2022-09-26T14:29:32.660Z,97150.69
2022-09-26T14:32:09.823Z,97140.59
2022-09-26T14:34:53.355Z,97137.38
2022-09-26T14:37:25.754Z,97139.31
2022-09-26T14:40:13.880Z,97123.63
2022-09-26T14:42:46.182Z,97130.72
2022-09-26T14:45:25.068Z,97129.69
2022-09-26T14:48:08.102Z,97130.53
2022-09-26T14:50:44.371Z,97122.06
2022-09-26T14:53:22.822Z,97121.19
2022-09-26T14:56:03.341Z,97121.06
2022-09-26T14:58:39.684Z,97121.91
2022-09-26T15:01:18.151Z,97123.22
2022-09-26T15:04:18.067Z,97123.66
2022-09-26T15:07:00.334Z,97119.84
2022-09-26T15:09:47.976Z,97117.66
2022-09-26T15:12:27.507Z,97118.03
2022-09-26T15:15:00.050Z,97105.66
2022-09-26T15:17:33.940Z,97109.28
2022-09-26T15:20:10.254Z,97118.44
2022-09-26T15:22:37.191Z,97112.69
2022-09-26T15:25:09.190Z,97104.50
2022-09-26T15:27:35.842Z,97100.16
2022-09-26T15:30:07.585Z,97104.50
2022-09-26T15:32:34.379Z,97102.47
2022-09-26T15:35:01.730Z,97090.69
2022-09-26T15:37:34.607Z,97089.72
2022-09-26T15:40:34.240Z,97096.22
2022-09-26T15:43:10.496Z,97091.53
2022-09-26T15:45:56.564Z,97081.09
2022-09-26T15:48:34.581Z,97077.25
2022-09-26T15:51:05.975Z,97079.31
2022-09-26T15:53:42.963Z,97073.81
2022-09-26T15:56:12.857Z,97077.91
2022-09-26T15:58:39.425Z,97066.25
2022-09-26T16:01:07.448Z,97068.72
2022-09-26T16:03:37.255Z,97071.16
2022-09-26T16:06:23.109Z,97064.59
2022-09-26T16:09:00.538Z,97069.72
2022-09-26T16:11:27.798Z,97070.81
2022-09-26T16:13:56.693Z,97068.16
2022-09-26T16:16:31.808Z,97058.19
2022-09-26T16:19:03.820Z,97064.31
2022-09-26T16:21:36.498Z,97059.03
2022-09-26T16:24:26.943Z,97059.25
2022-09-26T16:26:54.930Z,97048.81
2022-09-26T16:29:34.782Z,97057.03
2022-09-26T16:32:03.488Z,97043.13
2022-09-26T16:34:31.625Z,97055.16
2022-09-26T16:36:58.543Z,97045.56
2022-09-26T16:39:29.970Z,97039.41
2022-09-26T16:42:03.123Z,97044.75
2022-09-26T16:44:42.617Z,97045.56
2022-09-26T16:47:39.431Z,97036.75
2022-09-26T16:50:26.773Z,97029.59
2022-09-26T16:52:54.282Z,97030.63
2022-09-26T16:55:21.711Z,97028.59
2022-09-26T16:57:57.595Z,97028.59
2022-09-26T17:00:48.781Z,97026.75
2022-09-26T17:03:26.537Z,97020.00
2022-09-26T17:05:55.622Z,97024.72
2022-09-26T17:08:23.408Z,97018.81
2022-09-26T17:10:50.089Z,97012.69
2022-09-26T17:13:26.294Z,97012.25
2022-09-26T17:15:55.602Z,97013.91
2022-09-26T17:18:29.192Z,97005.72
2022-09-26T17:20:56.892Z,97005.28
2022-09-26T17:23:39.525Z,96998.16
2022-09-26T17:26:07.797Z,97002.66
2022-09-26T17:28:40.450Z,96997.16
2022-09-26T17:31:10.019Z,97002.06
2022-09-26T17:33:40.637Z,97000.22
2022-09-26T17:36:11.037Z,96997.56
2022-09-26T17:38:40.369Z,97000.00
2022-09-26T17:41:07.001Z,96992.84
2022-09-26T17:43:34.100Z,96992.84
2022-09-26T17:46:01.081Z,96981.63
2022-09-26T17:48:31.385Z,96977.34
2022-09-26T17:51:00.662Z,96958.13
2022-09-26T17:53:36.570Z,96967.94
2022-09-26T17:56:06.336Z,96956.50
2022-09-26T17:58:44.341Z,96961.81
2022-09-26T18:01:23.743Z,96956.50
2022-09-26T18:03:52.122Z,96946.53
2022-09-26T18:06:19.379Z,96950.19
2022-09-26T18:08:46.384Z,96944.25
2022-09-26T18:11:15.751Z,96944.06
2022-09-26T18:13:49.936Z,96946.34
2022-09-26T18:16:16.932Z,96936.50
2022-09-26T18:18:44.207Z,96929.97
2022-09-26T18:21:15.709Z,96926.72
2022-09-26T18:23:44.252Z,96923.03
2022-09-26T18:26:31.615Z,96912.63
2022-09-26T18:29:01.775Z,96909.78
2022-09-26T18:31:30.115Z,96912.81
2022-09-26T18:33:58.054Z,96908.31
2022-09-26T18:36:25.000Z,96907.50
2022-09-26T18:38:53.789Z,96910.38
2022-09-26T18:41:22.110Z,96895.66
2022-09-26T18:43:52.650Z,96892.19
2022-09-26T18:46:19.603Z,96899.13
2022-09-26T18:48:47.397Z,96887.91
2022-09-26T18:51:14.497Z,96895.22
2022-09-26T18:53:41.932Z,96893.59
2022-09-26T18:56:28.835Z,96876.03
2022-09-26T18:59:01.118Z,96887.91
2022-09-26T19:01:35.902Z,96881.56
2022-09-26T19:04:04.476Z,96884.00
2022-09-26T19:06:35.234Z,96881.97
2022-09-26T19:09:07.803Z,96888.09
2022-09-26T19:11:35.205Z,96887.69
2022-09-26T19:14:12.022Z,96885.03
2022-09-26T19:16:38.720Z,96878.28
2022-09-26T19:19:05.384Z,96874.81
2022-09-26T19:21:51.076Z,96869.50
2022-09-26T19:24:21.699Z,96866.00
2022-09-26T19:26:53.908Z,96868.47
2022-09-26T19:29:27.624Z,96863.34
2022-09-26T19:31:54.545Z,96868.66
2022-09-26T19:34:22.134Z,96859.66
2022-09-26T19:36:50.280Z,96873.34
2022-09-26T19:39:17.170Z,96861.31
2022-09-26T19:41:43.832Z,96867.00
2022-09-26T19:44:10.576Z,96863.75
2022-09-26T19:46:37.560Z,96860.63
2022-09-26T19:49:05.880Z,96855.94
2022-09-26T19:51:34.377Z,96856.78
2022-09-26T19:54:05.961Z,96854.69
2022-09-26T19:56:33.367Z,96850.84
2022-09-26T19:59:00.351Z,96853.31
2022-09-26T20:01:27.529Z,96850.28
2022-09-26T20:03:54.250Z,96852.94
2022-09-26T20:06:23.005Z,96849.25
2022-09-26T20:08:51.143Z,96855.41
2022-09-26T20:11:17.805Z,96847.00
2022-09-26T20:14:03.652Z,96834.75
2022-09-26T20:16:34.488Z,96834.97
2022-09-26T20:19:03.642Z,96828.00
2022-09-26T20:21:30.729Z,96823.50
2022-09-26T20:24:00.419Z,96829.66
2022-09-26T20:26:29.516Z,96818.41
2022-09-26T20:28:57.021Z,96810.22
2022-09-26T20:31:28.078Z,96810.44
2022-09-26T20:33:59.297Z,96811.22
2022-09-26T20:36:30.739Z,96808.91
2022-09-26T20:39:00.480Z,96798.59
2022-09-26T20:41:38.812Z,96803.22
2022-09-26T20:44:08.202Z,96802.38
2022-09-26T20:46:37.018Z,96799.94
2022-09-26T20:49:07.809Z,96794.53
2022-09-26T20:51:35.178Z,96796.78
2022-09-26T20:54:02.706Z,96798.06
2022-09-26T20:56:29.589Z,96796.84
2022-09-26T20:58:56.245Z,96807.47
2022-09-26T21:01:23.030Z,96801.56
2022-09-26T21:03:52.146Z,96797.78
2022-09-26T21:06:21.309Z,96793.91
2022-09-26T21:08:48.200Z,96785.59
2022-09-26T21:11:20.095Z,96779.44
2022-09-26T21:13:46.921Z,96782.94
2022-09-26T21:16:14.946Z,96764.78
2022-09-26T21:18:43.339Z,96772.34
2022-09-26T21:21:23.256Z,96759.88
2022-09-26T21:23:59.040Z,96762.72
2022-09-26T21:26:27.771Z,96760.72
2022-09-26T21:28:56.207Z,96755.00
2022-09-26T21:31:28.648Z,96753.78
2022-09-26T21:34:00.430Z,96756.00
2022-09-26T21:36:34.732Z,96744.59
2022-09-26T21:39:02.250Z,96746.00
2022-09-26T21:41:29.447Z,96753.94
2022-09-26T21:44:14.109Z,96752.94
2022-09-26T21:46:40.790Z,96749.09
2022-09-26T21:49:07.563Z,96759.06
2022-09-26T21:51:35.358Z,96754.19
2022-09-26T21:54:24.695Z,96764.38
2022-09-26T21:56:55.436Z,96746.59
2022-09-26T21:59:23.781Z,96754.16
2022-09-26T22:01:50.504Z,96742.94
2022-09-26T22:04:19.062Z,96746.81
2022-09-26T22:06:45.763Z,96732.34
2022-09-26T22:09:12.614Z,96739.06
2022-09-26T22:11:39.849Z,96727.03
2022-09-26T22:14:06.772Z,96722.75
2022-09-26T22:16:33.510Z,96723.34
2022-09-26T22:19:00.556Z,96713.75
2022-09-26T22:21:27.689Z,96711.53
2022-09-26T22:23:54.373Z,96708.47
2022-09-26T22:26:21.155Z,96710.50
2022-09-26T22:28:49.193Z,96708.66
2022-09-26T22:31:16.239Z,96705.19
2022-09-26T22:33:42.962Z,96706.81
2022-09-26T22:36:09.776Z,96703.34
2022-09-26T22:38:36.971Z,96691.94
2022-09-26T22:41:06.306Z,96691.72
2022-09-26T22:43:33.875Z,96689.84
2022-09-26T22:46:08.980Z,96681.72
2022-09-26T22:48:38.045Z,96681.72
2022-09-26T22:51:05.260Z,96686.03
2022-09-26T22:53:36.279Z,96676.66
2022-09-26T22:56:05.627Z,96677.06
2022-09-26T22:58:36.716Z,96669.72
2022-09-26T23:01:05.526Z,96670.16
2022-09-26T23:03:33.140Z,96661.59
2022-09-26T23:06:00.328Z,96661.59
2022-09-26T23:08:27.402Z,96661.19
2022-09-26T23:10:55.523Z,96658.94
2022-09-26T23:13:24.605Z,96654.28
2022-09-26T23:15:51.260Z,96647.53
2022-09-26T23:18:17.898Z,96638.16
2022-09-26T23:20:45.044Z,96628.22
2022-09-26T23:23:13.387Z,96620.28
2022-09-26T23:25:47.889Z,96613.97
2022-09-26T23:28:15.315Z,96611.91
2022-09-26T23:30:42.604Z,96602.31
2022-09-26T23:33:09.886Z,96596.03
2022-09-26T23:35:36.844Z,96589.13
2022-09-26T23:38:05.438Z,96588.94
2022-09-26T23:40:34.341Z,96592.16
2022-09-26T23:43:02.368Z,96579.34
2022-09-26T23:45:29.181Z,96572.84
2022-09-26T23:47:55.959Z,96576.50
2022-09-26T23:50:22.652Z,96570.59
2022-09-26T23:52:49.397Z,96563.47
2022-09-26T23:55:16.961Z,96567.13
2022-09-26T23:57:43.646Z,96554.31
